Time;durP1;ratioP1;P1;durP2;ratioP2;P2;SDS_P1;SDS_P2;PMS_P1;PMS_P2;Temp;Humidity;BMP_temperature;BMP_pressure;BME280_temperature;BME280_humidity;BME280_pressure;Samples;Min_cycle;Max_cycle;Signal;HPM_P1;HPM_P2
2023/10/25 00:00:45;;;;;;;0.10;0.10;;;11.20;99.90;;;;;;4999154;28;20021;-80
2023/10/25 00:03:12;;;;;;;0.10;0.10;;;11.20;99.90;;;;;;5008800;28;20172;-80
2023/10/25 00:05:38;;;;;;;0.10;0.10;;;11.00;99.90;;;;;;4991635;28;20018;-80
2023/10/25 00:08:03;;;;;;;0.10;0.10;;;11.00;99.90;;;;;;5011340;28;20616;-80
2023/10/25 00:10:29;;;;;;;0.20;0.20;;;11.00;99.90;;;;;;5006421;28;20115;-81
2023/10/25 00:12:54;;;;;;;0.10;0.10;;;11.00;99.90;;;;;;5005804;28;20124;-80
2023/10/25 00:15:21;;;;;;;0.10;0.10;;;11.00;99.90;;;;;;5006611;28;20018;-80
2023/10/25 00:17:48;;;;;;;0.20;0.20;;;11.00;99.90;;;;;;4990642;28;20765;-80
2023/10/25 00:20:13;;;;;;;0.10;0.10;;;10.90;99.90;;;;;;4996464;28;20104;-79
2023/10/25 00:22:39;;;;;;;0.10;0.10;;;10.80;99.90;;;;;;4989729;28;20148;-78
2023/10/25 00:25:05;;;;;;;0.30;0.30;;;11.00;99.90;;;;;;5007901;28;20051;-80
2023/10/25 00:27:30;;;;;;;0.10;0.10;;;11.00;99.90;;;;;;5011119;28;20064;-80
2023/10/25 00:29:56;;;;;;;0.13;0.13;;;11.00;99.90;;;;;;5008496;28;20035;-80
2023/10/25 00:32:22;;;;;;;0.10;0.10;;;11.00;99.90;;;;;;4986976;28;20091;-80
2023/10/25 00:34:47;;;;;;;0.10;0.10;;;11.00;99.90;;;;;;5007604;28;21004;-81
2023/10/25 00:37:13;;;;;;;0.20;0.20;;;11.10;99.90;;;;;;5002185;28;20017;-80
2023/10/25 00:39:38;;;;;;;0.15;0.15;;;11.10;99.90;;;;;;5006890;28;20625;-80
2023/10/25 00:42:04;;;;;;;0.10;0.10;;;11.00;99.90;;;;;;5003860;28;20465;-80
2023/10/25 00:44:30;;;;;;;0.20;0.20;;;10.90;99.90;;;;;;5008955;28;20030;-80
2023/10/25 00:46:56;;;;;;;0.10;0.10;;;11.00;99.90;;;;;;5008588;28;20295;-80
2023/10/25 00:49:24;;;;;;;0.75;0.20;;;10.90;99.90;;;;;;5007386;28;20479;-80
2023/10/25 00:51:50;;;;;;;0.45;0.45;;;10.90;99.90;;;;;;4992991;28;20026;-80
2023/10/25 00:54:16;;;;;;;0.10;0.10;;;10.90;99.90;;;;;;4987638;28;20025;-81
2023/10/25 00:56:42;;;;;;;0.20;0.20;;;10.80;99.90;;;;;;5006789;28;20018;-79
2023/10/25 00:59:10;;;;;;;0.30;0.30;;;10.90;99.90;;;;;;5010930;28;20385;-80
2023/10/25 01:01:43;;;;;;;0.80;0.20;;;10.90;99.90;;;;;;5004597;28;20010;-80
2023/10/25 01:04:08;;;;;;;0.17;0.17;;;10.90;99.90;;;;;;5004430;28;20113;-80
2023/10/25 01:06:34;;;;;;;0.10;0.10;;;11.00;99.90;;;;;;5005247;28;20141;-80
2023/10/25 01:09:00;;;;;;;0.10;0.10;;;11.00;99.90;;;;;;5008010;28;20032;-80
2023/10/25 01:11:26;;;;;;;0.10;0.10;;;10.90;99.90;;;;;;5014955;28;20369;-80
2023/10/25 01:13:52;;;;;;;0.10;0.10;;;10.90;99.90;;;;;;5015900;28;20064;-80
2023/10/25 01:16:19;;;;;;;0.25;0.25;;;11.00;99.90;;;;;;5012655;28;20465;-79
2023/10/25 01:18:47;;;;;;;0.10;0.10;;;10.90;99.90;;;;;;4999969;28;20018;-80
2023/10/25 01:21:13;;;;;;;0.80;0.20;;;10.80;99.90;;;;;;5009644;28;20103;-80
2023/10/25 01:23:39;;;;;;;0.13;0.13;;;10.80;99.90;;;;;;5007756;28;20041;-79
2023/10/25 01:26:04;;;;;;;0.30;0.30;;;10.80;99.90;;;;;;5006489;28;20025;-80
2023/10/25 01:28:30;;;;;;;0.10;0.10;;;10.80;99.90;;;;;;5008620;28;20037;-80
2023/10/25 01:30:56;;;;;;;0.10;0.10;;;10.90;99.90;;;;;;4986115;28;20025;-80
2023/10/25 01:33:21;;;;;;;0.20;0.20;;;10.80;99.90;;;;;;5006222;28;20041;-80
2023/10/25 01:35:47;;;;;;;0.43;0.43;;;10.80;99.90;;;;;;4990912;28;20026;-80
2023/10/25 01:38:13;;;;;;;0.40;0.40;;;10.70;99.90;;;;;;5008519;28;20373;-80
2023/10/25 01:40:38;;;;;;;0.10;0.10;;;10.70;99.90;;;;;;5006998;28;20143;-80
2023/10/25 01:43:06;;;;;;;0.20;0.10;;;10.70;99.90;;;;;;5004318;28;20068;-80
2023/10/25 01:45:32;;;;;;;0.10;0.10;;;10.70;99.90;;;;;;5005825;28;20057;-80
2023/10/25 01:47:58;;;;;;;0.10;0.10;;;10.70;99.90;;;;;;5005715;28;20840;-80
2023/10/25 01:50:23;;;;;;;0.10;0.10;;;10.70;99.90;;;;;;5002117;28;20026;-80
2023/10/25 01:52:49;;;;;;;0.10;0.10;;;10.70;99.90;;;;;;5009605;28;20101;-80
2023/10/25 01:55:15;;;;;;;0.13;0.13;;;10.60;99.90;;;;;;4999403;28;20018;-80
2023/10/25 01:57:42;;;;;;;0.10;0.10;;;10.60;99.90;;;;;;5004340;28;20034;-80
2023/10/25 02:00:08;;;;;;;0.10;0.10;;;10.70;99.90;;;;;;5003776;28;20034;-80
2023/10/25 02:02:34;;;;;;;0.10;0.10;;;10.70;99.90;;;;;;5004105;28;20428;-80
2023/10/25 02:04:59;;;;;;;0.20;0.20;;;10.60;99.90;;;;;;5009940;28;20219;-80
2023/10/25 02:07:25;;;;;;;0.10;0.10;;;10.70;99.90;;;;;;4986799;28;20034;-80
2023/10/25 02:09:53;;;;;;;0.10;0.10;;;10.70;99.90;;;;;;5010864;28;20092;-80
2023/10/25 02:12:18;;;;;;;0.10;0.10;;;10.70;99.90;;;;;;5007883;28;20025;-79
2023/10/25 02:14:44;;;;;;;0.10;0.10;;;10.70;99.90;;;;;;5012734;28;20021;-80
2023/10/25 02:17:12;;;;;;;0.10;0.10;;;10.70;99.90;;;;;;5012095;28;20021;-80
2023/10/25 02:19:39;;;;;;;0.10;0.10;;;10.80;99.90;;;;;;4990540;28;20025;-80
2023/10/25 02:22:05;;;;;;;0.00;0.00;;;10.80;99.90;;;;;;5000241;28;20350;-79
2023/10/25 02:24:31;;;;;;;0.10;0.10;;;10.70;99.90;;;;;;5007257;28;20661;-80
2023/10/25 02:26:56;;;;;;;0.45;0.45;;;10.70;99.90;;;;;;5010087;28;20038;-80
2023/10/25 02:29:22;;;;;;;0.15;0.15;;;10.70;99.90;;;;;;4990564;28;20491;-80
2023/10/25 02:31:48;;;;;;;0.10;0.10;;;10.70;99.90;;;;;;5010722;28;20026;-79
2023/10/25 02:34:13;;;;;;;0.10;0.10;;;10.70;99.90;;;;;;4992748;28;20646;-81
2023/10/25 02:36:39;;;;;;;0.20;0.20;;;10.70;99.90;;;;;;5010632;28;20444;-80
2023/10/25 02:39:04;;;;;;;0.25;0.25;;;10.70;99.90;;;;;;5009384;28;20037;-80
2023/10/25 02:41:30;;;;;;;1.08;1.05;;;10.70;99.90;;;;;;4994052;28;20483;-80
2023/10/25 02:43:58;;;;;;;0.10;0.10;;;10.70;99.90;;;;;;5012123;28;20080;-80
2023/10/25 02:46:25;;;;;;;0.10;0.10;;;10.70;99.90;;;;;;4993114;28;20026;-80
2023/10/25 02:48:51;;;;;;;0.25;0.25;;;10.60;99.90;;;;;;4991418;28;20026;-80
2023/10/25 02:51:17;;;;;;;0.10;0.10;;;10.60;99.90;;;;;;4990891;28;20021;-80
2023/10/25 02:53:43;;;;;;;0.10;0.10;;;10.60;99.90;;;;;;5005990;28;20013;-80
2023/10/25 02:56:08;;;;;;;0.10;0.10;;;10.60;99.90;;;;;;5010626;28;20113;-79
2023/10/25 02:58:34;;;;;;;0.13;0.13;;;10.50;99.90;;;;;;5009077;28;20116;-80
2023/10/25 03:01:00;;;;;;;0.10;0.10;;;10.50;99.90;;;;;;5004383;28;20280;-80
2023/10/25 03:03:27;;;;;;;0.10;0.10;;;10.50;99.90;;;;;;4991782;28;20485;-80
2023/10/25 03:05:55;;;;;;;0.20;0.20;;;10.50;99.90;;;;;;4991133;28;20025;-80
2023/10/25 03:08:21;;;;;;;0.28;0.28;;;10.60;99.90;;;;;;5009271;28;20125;-80
2023/10/25 03:10:47;;;;;;;0.20;0.20;;;10.50;99.90;;;;;;5005743;28;20089;-80
2023/10/25 03:13:15;;;;;;;0.10;0.10;;;10.50;99.90;;;;;;4994545;28;20120;-80
2023/10/25 03:15:43;;;;;;;0.20;0.20;;;10.50;99.90;;;;;;5006904;28;20105;-80
2023/10/25 03:18:09;;;;;;;0.10;0.10;;;10.50;99.90;;;;;;4991761;28;20025;-80
2023/10/25 03:20:34;;;;;;;0.20;0.20;;;10.50;99.90;;;;;;5008725;28;20059;-80
2023/10/25 03:23:00;;;;;;;0.47;0.40;;;10.40;99.90;;;;;;4995094;28;20553;-80
2023/10/25 03:25:26;;;;;;;0.20;0.20;;;10.50;99.90;;;;;;5006790;28;20504;-80
2023/10/25 03:27:52;;;;;;;0.10;0.10;;;10.40;99.90;;;;;;5007565;28;20034;-80
2023/10/25 03:30:21;;;;;;;0.32;0.32;;;10.50;99.90;;;;;;5010741;28;20026;-80
2023/10/25 03:32:46;;;;;;;0.10;0.10;;;10.40;99.90;;;;;;5011584;28;20021;-80
2023/10/25 03:35:12;;;;;;;0.38;0.38;;;10.40;99.90;;;;;;5018344;28;20023;-80
2023/10/25 03:37:39;;;;;;;0.25;0.25;;;10.40;99.90;;;;;;5008634;28;20029;-80
2023/10/25 03:40:14;;;;;;;0.10;0.10;;;10.40;99.90;;;;;;5005915;28;20474;-80
2023/10/25 03:42:40;;;;;;;0.20;0.20;;;10.30;99.90;;;;;;5009993;28;20022;-80
2023/10/25 03:45:06;;;;;;;0.20;0.20;;;10.30;99.90;;;;;;4988661;28;20030;-80
2023/10/25 03:47:37;;;;;;;0.30;0.30;;;10.30;99.90;;;;;;4990962;28;20034;-80
2023/10/25 03:50:04;;;;;;;0.10;0.10;;;10.40;99.90;;;;;;5003375;28;20469;-80
2023/10/25 03:52:32;;;;;;;0.17;0.17;;;10.30;99.90;;;;;;5009125;28;20018;-79
2023/10/25 03:54:58;;;;;;;0.28;0.28;;;10.40;99.90;;;;;;5004821;28;20306;-80
2023/10/25 03:57:24;;;;;;;0.20;0.20;;;10.30;99.90;;;;;;5008148;28;20480;-80
2023/10/25 03:59:50;;;;;;;0.13;0.13;;;10.30;99.90;;;;;;5015637;28;20034;-79
2023/10/25 04:02:15;;;;;;;0.40;0.40;;;10.40;99.90;;;;;;4992935;28;20468;-79
2023/10/25 04:04:41;;;;;;;0.17;0.17;;;10.30;99.90;;;;;;5009002;28;20017;-80
2023/10/25 04:07:07;;;;;;;0.52;0.52;;;10.30;99.90;;;;;;5005788;28;20041;-80
2023/10/25 04:09:32;;;;;;;0.10;0.10;;;10.30;99.90;;;;;;4987481;28;20030;-80
2023/10/25 04:11:58;;;;;;;0.13;0.13;;;10.30;99.90;;;;;;4989368;28;20032;-80
2023/10/25 04:14:23;;;;;;;0.32;0.30;;;10.30;99.90;;;;;;5008504;28;20029;-80
2023/10/25 04:16:49;;;;;;;0.43;0.43;;;10.30;99.90;;;;;;5007137;28;20025;-80
2023/10/25 04:19:15;;;;;;;0.10;0.10;;;10.20;99.90;;;;;;5008614;28;20028;-80
2023/10/25 04:21:41;;;;;;;0.20;0.20;;;10.20;99.90;;;;;;5005836;28;20030;-80
2023/10/25 04:24:07;;;;;;;0.20;0.20;;;10.20;99.90;;;;;;5009089;28;20069;-80
2023/10/25 04:26:33;;;;;;;0.20;0.20;;;10.20;99.90;;;;;;5010091;28;20068;-80
2023/10/25 04:29:00;;;;;;;0.15;0.15;;;10.20;99.90;;;;;;5008549;28;20045;-80
2023/10/25 04:31:26;;;;;;;0.10;0.10;;;10.30;99.90;;;;;;5008108;28;20017;-81
2023/10/25 04:33:52;;;;;;;0.10;0.10;;;10.20;99.90;;;;;;5011165;28;20029;-80
2023/10/25 04:36:17;;;;;;;0.10;0.10;;;10.20;99.90;;;;;;5008833;28;20036;-80
2023/10/25 04:38:43;;;;;;;1.98;0.55;;;10.30;99.90;;;;;;5006082;28;20085;-80
2023/10/25 04:41:11;;;;;;;0.30;0.30;;;10.30;99.90;;;;;;5003253;28;20461;-80
2023/10/25 04:43:37;;;;;;;0.30;0.30;;;10.30;99.90;;;;;;5003224;28;20026;-80
2023/10/25 04:46:03;;;;;;;0.30;0.30;;;10.30;99.90;;;;;;5003135;28;20026;-80
2023/10/25 04:48:31;;;;;;;0.20;0.20;;;10.30;99.90;;;;;;4992761;28;20475;-80
2023/10/25 04:50:57;;;;;;;0.30;0.30;;;10.30;99.90;;;;;;4993055;28;20120;-80
2023/10/25 04:53:23;;;;;;;0.20;0.20;;;10.30;99.90;;;;;;5002210;28;20442;-80
2023/10/25 04:55:48;;;;;;;1.08;0.30;;;10.30;99.90;;;;;;5006655;28;20030;-80
2023/10/25 04:58:14;;;;;;;0.20;0.20;;;10.30;99.90;;;;;;4987330;28;20944;-80
2023/10/25 05:00:39;;;;;;;0.30;0.30;;;10.30;99.90;;;;;;5008067;28;20053;-80
2023/10/25 05:03:11;;;;;;;0.20;0.20;;;10.30;99.90;;;;;;5006596;28;20041;-80
2023/10/25 05:05:40;;;;;;;0.40;0.40;;;10.40;99.90;;;;;;5005075;28;20031;-80
2023/10/25 05:08:07;;;;;;;0.57;0.55;;;10.40;99.90;;;;;;5007159;28;20746;-80
2023/10/25 05:10:33;;;;;;;0.20;0.20;;;10.50;99.90;;;;;;4998105;28;20504;-80
2023/10/25 05:12:59;;;;;;;0.35;0.35;;;10.60;99.90;;;;;;4988975;28;20751;-80
2023/10/25 05:15:27;;;;;;;0.20;0.20;;;10.60;99.90;;;;;;4989993;28;20029;-80
2023/10/25 05:17:53;;;;;;;0.20;0.20;;;10.60;99.90;;;;;;4987863;28;20029;-79
2023/10/25 05:20:19;;;;;;;0.20;0.20;;;10.60;99.90;;;;;;5002044;28;20765;-81
2023/10/25 05:22:52;;;;;;;0.30;0.30;;;10.70;99.90;;;;;;5004776;28;20033;-80
2023/10/25 05:25:18;;;;;;;0.28;0.22;;;10.70;99.90;;;;;;4984544;28;20033;-80
2023/10/25 05:27:44;;;;;;;0.20;0.20;;;10.70;99.90;;;;;;5005656;28;21251;-80
2023/10/25 05:30:14;;;;;;;0.20;0.20;;;10.70;99.90;;;;;;4991543;28;20021;-80
2023/10/25 05:32:45;;;;;;;0.43;0.43;;;10.80;99.90;;;;;;5001796;28;20034;-80
2023/10/25 05:35:12;;;;;;;0.20;0.20;;;10.80;99.90;;;;;;5004432;28;20108;-80
2023/10/25 05:37:37;;;;;;;0.35;0.35;;;10.90;99.90;;;;;;5009201;28;20567;-80
2023/10/25 05:40:04;;;;;;;0.10;0.10;;;10.90;99.90;;;;;;5003106;28;20041;-80
2023/10/25 05:42:35;;;;;;;0.13;0.13;;;11.00;99.90;;;;;;5001752;28;20112;-80
2023/10/25 05:45:04;;;;;;;0.20;0.20;;;11.00;99.90;;;;;;4982493;28;20096;-79
2023/10/25 05:47:30;;;;;;;0.20;0.20;;;11.00;99.90;;;;;;5002158;28;20160;-80
2023/10/25 05:49:55;;;;;;;0.20;0.20;;;11.10;99.90;;;;;;5003485;28;20139;-80
2023/10/25 05:52:23;;;;;;;0.30;0.30;;;11.10;99.90;;;;;;4999918;28;20038;-79
2023/10/25 05:54:48;;;;;;;0.20;0.20;;;11.10;99.90;;;;;;5004279;28;20029;-80
2023/10/25 05:57:14;;;;;;;0.30;0.30;;;11.20;99.90;;;;;;5004885;28;20385;-80
2023/10/25 05:59:41;;;;;;;0.20;0.20;;;11.20;99.90;;;;;;4985189;28;20478;-80
2023/10/25 06:02:15;;;;;;;0.20;0.20;;;11.20;99.90;;;;;;5005757;28;20478;-80
2023/10/25 06:04:42;;;;;;;0.20;0.20;;;11.20;99.90;;;;;;5003549;28;20473;-80
2023/10/25 06:07:09;;;;;;;0.10;0.10;;;11.20;99.90;;;;;;5003420;28;20033;-80
2023/10/25 06:09:36;;;;;;;0.20;0.20;;;11.20;99.90;;;;;;5002417;28;20633;-80
2023/10/25 06:12:03;;;;;;;0.20;0.20;;;11.10;99.90;;;;;;5004207;28;20018;-81
2023/10/25 06:14:29;;;;;;;0.20;0.20;;;11.20;99.90;;;;;;5008622;28;20017;-80
2023/10/25 06:16:56;;;;;;;0.40;0.40;;;11.20;99.90;;;;;;5003214;28;20052;-80
2023/10/25 06:19:22;;;;;;;0.10;0.10;;;11.10;99.90;;;;;;5001801;28;20128;-80
2023/10/25 06:21:47;;;;;;;0.20;0.20;;;11.10;99.90;;;;;;4993528;28;20085;-79
2023/10/25 06:24:13;;;;;;;0.10;0.10;;;11.20;99.90;;;;;;4996814;28;20030;-79
2023/10/25 06:26:38;;;;;;;0.47;0.35;;;11.20;99.90;;;;;;4986197;28;20129;-79
2023/10/25 06:29:04;;;;;;;0.20;0.20;;;11.30;99.90;;;;;;5005670;28;20568;-79
2023/10/25 06:31:32;;;;;;;0.20;0.20;;;11.30;99.90;;;;;;5004452;28;20018;-82
2023/10/25 06:33:57;;;;;;;0.13;0.13;;;11.20;99.90;;;;;;5007070;28;20021;-79
2023/10/25 06:36:23;;;;;;;0.57;0.57;;;11.30;99.90;;;;;;5004146;28;20104;-79
2023/10/25 06:38:49;;;;;;;0.20;0.20;;;11.30;99.90;;;;;;5007529;28;20022;-79
2023/10/25 06:41:19;;;;;;;0.13;0.13;;;11.30;99.90;;;;;;5009793;28;20349;-79
2023/10/25 06:43:45;;;;;;;0.20;0.20;;;11.30;99.90;;;;;;5006509;28;20495;-79
2023/10/25 06:46:11;;;;;;;0.20;0.20;;;11.30;99.90;;;;;;4991730;28;20053;-79
2023/10/25 06:48:40;;;;;;;0.20;0.20;;;11.20;99.90;;;;;;5003360;28;20030;-79
2023/10/25 06:51:07;;;;;;;0.95;0.95;;;11.20;99.90;;;;;;4988830;28;20217;-79
2023/10/25 06:53:36;;;;;;;0.32;0.20;;;11.20;99.90;;;;;;5007354;28;20027;-79
2023/10/25 06:56:02;;;;;;;0.20;0.20;;;11.20;99.90;;;;;;5005251;28;20049;-79
2023/10/25 06:58:28;;;;;;;0.20;0.20;;;11.20;99.90;;;;;;4991903;28;20029;-79
2023/10/25 07:00:55;;;;;;;0.30;0.30;;;11.20;99.90;;;;;;5000886;28;20497;-79
2023/10/25 07:03:34;;;;;;;0.10;0.10;;;11.30;99.90;;;;;;4992264;28;20022;-79
2023/10/25 07:06:04;;;;;;;0.10;0.10;;;11.30;99.90;;;;;;5004027;28;20130;-81
2023/10/25 07:08:33;;;;;;;0.10;0.10;;;11.30;99.90;;;;;;5009133;28;20041;-81
2023/10/25 07:10:59;;;;;;;0.10;0.10;;;11.30;99.90;;;;;;5006890;28;20026;-79
2023/10/25 07:13:26;;;;;;;0.20;0.20;;;11.30;99.90;;;;;;4992425;28;20024;-79
2023/10/25 07:15:52;;;;;;;0.20;0.20;;;11.30;99.90;;;;;;4991882;28;20060;-79
2023/10/25 07:18:18;;;;;;;0.30;0.30;;;11.40;99.90;;;;;;5005856;28;20437;-79
2023/10/25 07:20:46;;;;;;;0.40;0.30;;;11.40;99.90;;;;;;4995408;28;20022;-79
2023/10/25 07:23:14;;;;;;;0.32;0.32;;;11.40;99.90;;;;;;5003765;28;20041;-79
2023/10/25 07:25:40;;;;;;;0.20;0.20;;;11.50;99.90;;;;;;4991545;28;20026;-79
2023/10/25 07:28:05;;;;;;;0.28;0.28;;;11.50;99.90;;;;;;5006058;28;20265;-79
2023/10/25 07:30:33;;;;;;;0.20;0.20;;;11.50;99.90;;;;;;4995386;28;20700;-79
2023/10/25 07:32:58;;;;;;;0.20;0.20;;;11.60;99.90;;;;;;5004804;28;20026;-79
2023/10/25 07:35:24;;;;;;;0.10;0.10;;;11.60;99.90;;;;;;4991491;28;20044;-82
2023/10/25 07:37:50;;;;;;;0.10;0.10;;;11.60;99.90;;;;;;5000609;28;20057;-81
2023/10/25 07:40:18;;;;;;;0.20;0.20;;;11.60;99.90;;;;;;5003983;28;20057;-81
2023/10/25 07:42:46;;;;;;;0.20;0.20;;;11.60;99.90;;;;;;4976752;28;20433;-80
2023/10/25 07:45:12;;;;;;;0.30;0.30;;;11.70;99.90;;;;;;5010239;28;20040;-80
2023/10/25 07:47:37;;;;;;;0.10;0.10;;;11.70;99.90;;;;;;4991688;28;20037;-80
2023/10/25 07:50:05;;;;;;;0.65;0.65;;;11.70;99.90;;;;;;4989611;28;20128;-79
2023/10/25 07:52:31;;;;;;;0.10;0.10;;;11.70;99.90;;;;;;5006510;28;20032;-80
2023/10/25 07:54:57;;;;;;;0.10;0.10;;;11.70;99.90;;;;;;4985286;28;20021;-80
2023/10/25 07:57:25;;;;;;;0.10;0.10;;;11.80;99.90;;;;;;5011919;28;20063;-79
2023/10/25 07:59:51;;;;;;;0.13;0.13;;;11.80;99.90;;;;;;5003846;28;20026;-79
2023/10/25 08:02:17;;;;;;;0.13;0.13;;;11.80;99.90;;;;;;4989778;28;20110;-80
2023/10/25 08:04:42;;;;;;;0.10;0.10;;;11.80;99.90;;;;;;5009073;28;20030;-79
2023/10/25 08:07:10;;;;;;;0.10;0.10;;;11.80;99.90;;;;;;4988687;28;20048;-79
2023/10/25 08:09:36;;;;;;;0.10;0.10;;;11.90;99.90;;;;;;4990275;28;20489;-79
2023/10/25 08:12:02;;;;;;;0.10;0.10;;;11.90;99.90;;;;;;4989430;28;20690;-79
2023/10/25 08:14:27;;;;;;;0.28;0.28;;;11.90;99.90;;;;;;5003232;28;20018;-79
2023/10/25 08:16:53;;;;;;;0.20;0.20;;;11.90;99.90;;;;;;5005311;28;20196;-79
2023/10/25 08:19:19;;;;;;;0.10;0.10;;;11.90;99.90;;;;;;5007274;28;20695;-80
2023/10/25 08:21:45;;;;;;;0.10;0.10;;;11.90;99.90;;;;;;5010137;28;20049;-79
2023/10/25 08:24:10;;;;;;;0.10;0.10;;;12.00;99.90;;;;;;5007467;28;20064;-79
2023/10/25 08:26:39;;;;;;;0.10;0.10;;;12.00;99.90;;;;;;5008648;28;20548;-80
2023/10/25 08:29:06;;;;;;;0.15;0.15;;;12.00;99.90;;;;;;5010177;28;20117;-80
2023/10/25 08:31:32;;;;;;;0.10;0.10;;;12.00;99.90;;;;;;5006723;28;20105;-80
2023/10/25 08:33:59;;;;;;;0.13;0.13;;;12.00;99.90;;;;;;4990145;28;20033;-79
2023/10/25 08:36:25;;;;;;;0.10;0.10;;;12.00;99.90;;;;;;4998533;28;20305;-80
2023/10/25 08:38:53;;;;;;;0.13;0.13;;;12.10;99.90;;;;;;5009050;28;20053;-79
2023/10/25 08:41:19;;;;;;;0.10;0.10;;;12.10;99.90;;;;;;5007761;28;20686;-79
2023/10/25 08:43:45;;;;;;;0.10;0.10;;;12.20;99.90;;;;;;4987171;28;20050;-80
2023/10/25 08:46:13;;;;;;;0.20;0.20;;;12.20;99.90;;;;;;4988692;28;20049;-80
2023/10/25 08:48:38;;;;;;;0.20;0.20;;;12.20;99.90;;;;;;5005287;28;20038;-79
2023/10/25 08:51:05;;;;;;;0.30;0.30;;;12.20;99.90;;;;;;4991082;28;20018;-79
2023/10/25 08:53:31;;;;;;;0.20;0.20;;;12.30;99.90;;;;;;5007204;28;20026;-80
2023/10/25 08:55:58;;;;;;;0.20;0.20;;;12.20;99.90;;;;;;4979607;28;20121;-80
2023/10/25 08:58:24;;;;;;;0.20;0.20;;;12.20;99.90;;;;;;5003527;28;20364;-80
2023/10/25 09:00:51;;;;;;;0.10;0.10;;;12.40;99.90;;;;;;5005624;28;20024;-79
2023/10/25 09:03:32;;;;;;;0.10;0.10;;;12.40;99.90;;;;;;4988415;28;20032;-80
2023/10/25 09:06:02;;;;;;;0.10;0.10;;;12.50;99.90;;;;;;4991788;28;20030;-80
2023/10/25 09:08:28;;;;;;;0.10;0.10;;;12.50;99.90;;;;;;4990006;28;20038;-80
2023/10/25 09:11:01;;;;;;;0.10;0.10;;;12.60;99.90;;;;;;5005546;28;20029;-79
2023/10/25 09:13:27;;;;;;;;;;;12.60;99.90;;;;;;5004714;28;20191;-80
2023/10/25 09:16:06;;;;;;;0.20;0.20;;;12.60;99.90;;;;;;5003951;28;20499;-80
2023/10/25 09:18:33;;;;;;;0.10;0.10;;;12.70;99.90;;;;;;4989293;28;20515;-79
2023/10/25 09:20:59;;;;;;;0.10;0.10;;;12.70;99.90;;;;;;5009809;28;20030;-80
2023/10/25 09:23:25;;;;;;;0.20;0.20;;;12.70;99.90;;;;;;5007589;28;20033;-80
2023/10/25 09:25:50;;;;;;;0.20;0.20;;;12.70;99.90;;;;;;5015847;28;20087;-80
2023/10/25 09:28:28;;;;;;;2.90;0.20;;;12.80;99.90;;;;;;5010841;28;20512;-80
2023/10/25 09:30:59;;;;;;;0.20;0.20;;;12.80;99.90;;;;;;4990084;28;20629;-80
2023/10/25 09:33:28;;;;;;;0.20;0.15;;;12.80;99.90;;;;;;5011225;28;20512;-80
2023/10/25 09:35:54;;;;;;;0.10;0.10;;;12.80;99.90;;;;;;4988857;28;20116;-80
2023/10/25 09:38:19;;;;;;;0.22;0.22;;;12.90;99.90;;;;;;5009021;28;20136;-79
2023/10/25 09:40:46;;;;;;;0.30;0.30;;;12.90;99.90;;;;;;5007232;28;20061;-80
2023/10/25 09:43:20;;;;;;;0.10;0.10;;;13.00;99.90;;;;;;4991015;28;20281;-80
2023/10/25 09:45:53;;;;;;;0.20;0.20;;;13.10;99.90;;;;;;4988977;28;20023;-80
2023/10/25 09:48:20;;;;;;;0.10;0.10;;;13.20;99.90;;;;;;4999619;28;20506;-80
2023/10/25 09:51:06;;;;;;;0.68;0.68;;;13.20;99.90;;;;;;4992999;28;20022;-80
2023/10/25 09:53:47;;;;;;;0.20;0.20;;;13.30;99.90;;;;;;5005965;28;20022;-80
2023/10/25 09:56:14;;;;;;;0.25;0.25;;;13.30;99.90;;;;;;5000051;28;20081;-79
2023/10/25 09:58:40;;;;;;;0.17;0.17;;;13.30;99.90;;;;;;4997343;28;20030;-80
2023/10/25 10:01:08;;;;;;;0.47;0.47;;;13.40;99.90;;;;;;5008682;28;20026;-79
2023/10/25 10:03:44;;;;;;;0.20;0.20;;;13.40;99.90;;;;;;4990904;28;20037;-81
2023/10/25 10:06:26;;;;;;;0.20;0.20;;;13.50;99.90;;;;;;4989722;28;20065;-80
2023/10/25 10:09:13;;;;;;;0.20;0.20;;;13.60;99.90;;;;;;5005824;28;20473;-80
2023/10/25 10:11:56;;;;;;;0.20;0.20;;;13.60;99.90;;;;;;4986273;28;20444;-80
2023/10/25 10:14:31;;;;;;;0.17;0.17;;;13.60;99.90;;;;;;5003844;28;20028;-80
2023/10/25 10:16:59;;;;;;;0.20;0.20;;;13.60;99.90;;;;;;4988132;28;20353;-80
2023/10/25 10:19:24;;;;;;;0.38;0.38;;;13.70;99.90;;;;;;5004778;28;20026;-81
2023/10/25 10:22:10;;;;;;;0.10;0.10;;;13.70;99.90;;;;;;4985471;28;20377;-80
2023/10/25 10:24:42;;;;;;;0.30;0.30;;;13.60;99.90;;;;;;5006296;28;20034;-80
2023/10/25 10:27:09;;;;;;;0.20;0.20;;;13.60;99.90;;;;;;4993375;28;20144;-80
2023/10/25 10:29:35;;;;;;;0.20;0.20;;;13.60;99.90;;;;;;5012616;28;20035;-80
2023/10/25 10:32:05;;;;;;;0.10;0.10;;;13.60;99.90;;;;;;4995629;28;20409;-80
2023/10/25 10:34:57;;;;;;;0.20;0.20;;;13.60;99.90;;;;;;4992662;28;20698;-80
2023/10/25 10:37:25;;;;;;;0.30;0.30;;;13.70;99.90;;;;;;5006904;28;20116;-80
2023/10/25 10:39:59;;;;;;;0.10;0.10;;;13.70;99.90;;;;;;5011223;28;20018;-79
2023/10/25 10:42:38;;;;;;;0.17;0.17;;;13.70;99.90;;;;;;4980200;28;20101;-80
2023/10/25 10:45:06;;;;;;;1.13;0.47;;;13.70;99.90;;;;;;5009938;28;20087;-80
2023/10/25 10:47:42;;;;;;;0.30;0.30;;;13.60;99.90;;;;;;5010059;28;20065;-80
2023/10/25 10:50:21;;;;;;;0.10;0.10;;;13.60;99.90;;;;;;4994100;28;20413;-80
2023/10/25 10:52:49;;;;;;;0.20;0.20;;;13.60;99.90;;;;;;5003885;28;20025;-80
2023/10/25 10:55:20;;;;;;;0.17;0.17;;;13.60;99.90;;;;;;5013504;28;20123;-80
2023/10/25 10:57:47;;;;;;;0.20;0.20;;;13.60;99.90;;;;;;4997475;28;20084;-80
2023/10/25 11:00:16;;;;;;;0.15;0.15;;;13.60;99.90;;;;;;5008480;28;20053;-79
2023/10/25 11:02:45;;;;;;;0.10;0.10;;;13.60;99.90;;;;;;4993852;28;20090;-80
2023/10/25 11:05:13;;;;;;;0.30;0.30;;;13.60;99.90;;;;;;5013256;28;20083;-80
2023/10/25 11:07:38;;;;;;;0.10;0.10;;;13.60;99.90;;;;;;5011921;28;20025;-80
2023/10/25 11:10:04;;;;;;;0.10;0.10;;;13.50;99.90;;;;;;5015100;28;20040;-80
2023/10/25 11:12:31;;;;;;;0.10;0.10;;;13.50;99.90;;;;;;5003114;28;20058;-80
2023/10/25 11:15:03;;;;;;;0.13;0.13;;;13.50;99.90;;;;;;5009997;28;20011;-80
2023/10/25 11:17:30;;;;;;;0.13;0.13;;;13.50;99.90;;;;;;4992018;28;20014;-80
2023/10/25 11:19:55;;;;;;;0.28;0.28;;;13.50;99.90;;;;;;5008037;28;20558;-80
2023/10/25 11:22:21;;;;;;;0.20;0.20;;;13.50;99.90;;;;;;5006683;28;20132;-80
2023/10/25 11:24:48;;;;;;;0.10;0.10;;;13.50;99.90;;;;;;5011856;28;20113;-80
2023/10/25 11:27:14;;;;;;;0.20;0.20;;;13.50;99.90;;;;;;4991978;28;20037;-80
2023/10/25 11:29:40;;;;;;;0.10;0.10;;;13.50;99.90;;;;;;5009167;28;20040;-80
2023/10/25 11:32:11;;;;;;;0.20;0.20;;;13.50;99.90;;;;;;5003753;28;20386;-80
2023/10/25 11:34:42;;;;;;;0.10;0.10;;;13.50;99.90;;;;;;5011446;28;20018;-80
2023/10/25 11:37:09;;;;;;;0.10;0.10;;;13.50;99.90;;;;;;5010752;28;20021;-80
2023/10/25 11:40:01;;;;;;;0.20;0.20;;;13.50;99.90;;;;;;5007572;28;20041;-80
2023/10/25 11:42:30;;;;;;;0.20;0.20;;;13.50;99.90;;;;;;4994728;28;20374;-80
2023/10/25 11:44:58;;;;;;;0.30;0.30;;;13.40;99.90;;;;;;5007481;28;20375;-80
2023/10/25 11:47:23;;;;;;;0.10;0.10;;;13.30;99.90;;;;;;4989036;28;20034;-80
2023/10/25 11:49:58;;;;;;;0.10;0.10;;;13.40;99.90;;;;;;5006864;28;20022;-81
2023/10/25 11:52:27;;;;;;;0.10;0.10;;;13.30;99.90;;;;;;5013426;28;20366;-80
2023/10/25 11:54:56;;;;;;;0.10;0.10;;;13.40;99.90;;;;;;5008616;28;20036;-80
2023/10/25 11:57:30;;;;;;;0.10;0.10;;;13.30;99.90;;;;;;4994884;28;20105;-79
2023/10/25 11:59:56;;;;;;;0.10;0.10;;;13.30;99.90;;;;;;5006193;28;20029;-80
2023/10/25 12:02:26;;;;;;;0.10;0.10;;;13.20;99.90;;;;;;4991948;28;20030;-80
2023/10/25 12:04:55;;;;;;;0.10;0.10;;;13.10;99.90;;;;;;5007654;28;20026;-80
2023/10/25 12:07:21;;;;;;;0.10;0.10;;;13.10;99.90;;;;;;5002141;28;20347;-80
2023/10/25 12:09:51;;;;;;;0.10;0.10;;;13.00;99.90;;;;;;4988571;28;20028;-80
2023/10/25 12:12:17;;;;;;;0.10;0.10;;;13.00;99.90;;;;;;4990135;28;20100;-79
2023/10/25 12:14:43;;;;;;;0.20;0.20;;;13.00;99.90;;;;;;5010458;28;20248;-80
2023/10/25 12:17:09;;;;;;;0.10;0.10;;;13.00;99.90;;;;;;5005573;28;20489;-80
2023/10/25 12:19:35;;;;;;;0.10;0.10;;;12.90;99.90;;;;;;5008157;28;20083;-80
2023/10/25 12:22:05;;;;;;;0.10;0.10;;;12.90;99.90;;;;;;4989631;28;20025;-80
2023/10/25 12:24:32;;;;;;;0.10;0.10;;;12.90;99.90;;;;;;4987585;28;20043;-80
2023/10/25 12:26:57;;;;;;;0.10;0.10;;;12.90;99.90;;;;;;4991217;28;20037;-79
2023/10/25 12:29:25;;;;;;;0.47;0.47;;;12.80;99.90;;;;;;5005710;28;20429;-80
2023/10/25 12:31:50;;;;;;;0.25;0.25;;;12.80;99.90;;;;;;5007107;28;20104;-80
2023/10/25 12:34:16;;;;;;;0.10;0.10;;;12.70;99.90;;;;;;5005390;28;20113;-81
2023/10/25 12:36:42;;;;;;;0.10;0.10;;;12.70;99.90;;;;;;4979850;28;20034;-80
2023/10/25 12:39:08;;;;;;;0.10;0.10;;;12.70;99.90;;;;;;4988627;28;20197;-80
2023/10/25 12:41:33;;;;;;;0.20;0.20;;;12.70;99.90;;;;;;4985760;28;20390;-80
2023/10/25 12:44:01;;;;;;;0.10;0.10;;;12.60;99.90;;;;;;4988232;28;20027;-80
2023/10/25 12:46:27;;;;;;;0.20;0.20;;;12.70;99.90;;;;;;4989600;28;20019;-80
2023/10/25 12:48:52;;;;;;;0.10;0.10;;;12.70;99.90;;;;;;5004113;28;20517;-80